Time;durP1;ratioP1;P1;durP2;ratioP2;P2;SDS_P1;SDS_P2;PMS_P1;PMS_P2;Temp;Humidity;BMP_temperature;BMP_pressure;BME280_temperature;BME280_humidity;BME280_pressure;Samples;Min_cycle;Max_cycle;Signal;HPM_P1;HPM_P2
2024/01/04 00:01:18;;;;;;;13.73;7.32;;;;;;;;;;5023391;28;20197;-76
2024/01/04 00:03:44;;;;;;;15.30;8.38;;;;;;;;;;5016205;28;20199;-76
2024/01/04 00:06:09;;;;;;;15.15;8.32;;;;;;;;;;5022585;28;20781;-77
2024/01/04 00:08:35;;;;;;;14.43;8.32;;;;;;;;;;5012054;28;20213;-77
2024/01/04 00:11:07;;;;;;;13.90;8.52;;;;;;;;;;5030933;28;20236;-76
2024/01/04 00:13:33;;;;;;;16.55;9.48;;;;;;;;;;5032603;28;20205;-77
2024/01/04 00:15:58;;;;;;;17.52;9.30;;;;;;;;;;5031052;28;20194;-76
2024/01/04 00:18:24;;;;;;;20.40;10.63;;;;;;;;;;5010596;28;20305;-77
2024/01/04 00:20:49;;;;;;;21.35;10.43;;;;;;;;;;5000607;28;20342;-77
2024/01/04 00:23:15;;;;;;;14.95;9.25;;;;;;;;;;5008694;28;20183;-77
2024/01/04 00:25:41;;;;;;;14.13;8.05;;;;;;;;;;4989290;28;20199;-77
2024/01/04 00:28:07;;;;;;;15.80;8.35;;;;;;;;;;5010403;28;20187;-77
2024/01/04 00:30:32;;;;;;;18.17;7.75;;;;;;;;;;5009070;28;20286;-76
2024/01/04 00:32:57;;;;;;;13.30;8.02;;;;;;;;;;5009265;28;20753;-76
2024/01/04 00:35:23;;;;;;;13.83;8.03;;;;;;;;;;5010718;28;20201;-76
2024/01/04 00:37:49;;;;;;;17.55;7.72;;;;;;;;;;5008701;28;20198;-76
2024/01/04 00:40:15;;;;;;;15.15;7.43;;;;;;;;;;5007393;28;20277;-76
2024/01/04 00:42:40;;;;;;;19.17;7.35;;;;;;;;;;5008689;28;20270;-76
2024/01/04 00:45:06;;;;;;;14.10;5.88;;;;;;;;;;5002979;28;20183;-76
2024/01/04 00:47:32;;;;;;;11.70;6.45;;;;;;;;;;5018045;28;20691;-76
2024/01/04 00:49:57;;;;;;;11.82;5.43;;;;;;;;;;5015452;28;20198;-77
2024/01/04 00:52:23;;;;;;;12.30;5.30;;;;;;;;;;5008647;28;20650;-76
2024/01/04 00:54:48;;;;;;;13.52;5.70;;;;;;;;;;4999182;28;20207;-76
2024/01/04 00:57:13;;;;;;;10.77;5.10;;;;;;;;;;5003141;28;20205;-78
2024/01/04 00:59:39;;;;;;;13.52;5.47;;;;;;;;;;5014835;28;20231;-76
2024/01/04 01:02:05;;;;;;;12.20;4.55;;;;;;;;;;5008379;28;20199;-76
2024/01/04 01:04:31;;;;;;;13.32;4.90;;;;;;;;;;4990231;28;20203;-77
2024/01/04 01:06:56;;;;;;;11.43;4.28;;;;;;;;;;5004031;28;20199;-75
2024/01/04 01:09:22;;;;;;;11.55;4.28;;;;;;;;;;4988431;28;20667;-75
2024/01/04 01:11:47;;;;;;;12.32;4.93;;;;;;;;;;5010270;28;20681;-75
2024/01/04 01:14:12;;;;;;;11.30;4.50;;;;;;;;;;4992403;28;20198;-76
2024/01/04 01:16:38;;;;;;;10.57;4.82;;;;;;;;;;5007553;28;20191;-76
2024/01/04 01:19:03;;;;;;;10.57;4.30;;;;;;;;;;5007246;28;20701;-76
2024/01/04 01:21:29;;;;;;;12.38;4.20;;;;;;;;;;5008775;28;20265;-76
2024/01/04 01:23:54;;;;;;;8.23;3.33;;;;;;;;;;4996525;28;20195;-76
2024/01/04 01:26:20;;;;;;;7.75;3.33;;;;;;;;;;5006200;28;20209;-75
2024/01/04 01:28:45;;;;;;;6.68;3.03;;;;;;;;;;5022081;28;20206;-76
2024/01/04 01:31:11;;;;;;;8.53;3.33;;;;;;;;;;5003412;28;20274;-76
2024/01/04 01:33:36;;;;;;;6.47;3.03;;;;;;;;;;5009635;28;20281;-76
2024/01/04 01:36:02;;;;;;;9.05;3.33;;;;;;;;;;5010619;28;20615;-75
2024/01/04 01:38:28;;;;;;;11.35;3.10;;;;;;;;;;5008866;28;20230;-75
2024/01/04 01:40:54;;;;;;;6.10;2.17;;;;;;;;;;4992151;28;20194;-76
2024/01/04 01:43:20;;;;;;;9.73;2.42;;;;;;;;;;5008664;28;20194;-76
2024/01/04 01:45:46;;;;;;;5.55;2.10;;;;;;;;;;5024151;28;20605;-76
2024/01/04 01:48:14;;;;;;;8.07;2.50;;;;;;;;;;4990172;28;20195;-76
2024/01/04 01:50:40;;;;;;;4.85;2.25;;;;;;;;;;5010486;28;20566;-76
2024/01/04 01:53:06;;;;;;;5.82;1.90;;;;;;;;;;5009130;28;20218;-75
2024/01/04 01:55:32;;;;;;;4.93;1.57;;;;;;;;;;5000758;28;20246;-77
2024/01/04 01:57:57;;;;;;;5.73;1.50;;;;;;;;;;5009463;28;20191;-76
2024/01/04 02:00:23;;;;;;;3.63;1.33;;;;;;;;;;5006793;28;20201;-75
2024/01/04 02:02:49;;;;;;;7.63;1.30;;;;;;;;;;5024212;28;20202;-75
2024/01/04 02:05:15;;;;;;;4.23;0.97;;;;;;;;;;5005960;28;20214;-75
2024/01/04 02:07:43;;;;;;;3.13;1.10;;;;;;;;;;4985452;28;20191;-74
2024/01/04 02:10:08;;;;;;;4.80;0.97;;;;;;;;;;5002964;28;20662;-76
2024/01/04 02:12:34;;;;;;;4.68;1.17;;;;;;;;;;5005670;28;20308;-75
2024/01/04 02:14:59;;;;;;;5.60;0.75;;;;;;;;;;4998906;28;20588;-76
2024/01/04 02:17:25;;;;;;;3.38;0.75;;;;;;;;;;5005868;28;20300;-75
2024/01/04 02:19:51;;;;;;;3.55;0.70;;;;;;;;;;5006939;28;20211;-75
2024/01/04 02:22:17;;;;;;;8.68;1.10;;;;;;;;;;5026227;28;20198;-75
2024/01/04 02:24:46;;;;;;;5.45;1.05;;;;;;;;;;5011248;28;20201;-75
2024/01/04 02:27:12;;;;;;;3.55;0.90;;;;;;;;;;4995291;28;20213;-75
2024/01/04 02:29:38;;;;;;;5.88;0.75;;;;;;;;;;5008968;28;20190;-74
2024/01/04 02:32:05;;;;;;;5.20;0.68;;;;;;;;;;5005807;28;20287;-75
2024/01/04 02:34:30;;;;;;;5.35;0.98;;;;;;;;;;5006476;28;20568;-75
2024/01/04 02:36:57;;;;;;;3.33;0.77;;;;;;;;;;5028623;28;20194;-75
2024/01/04 02:39:22;;;;;;;4.32;0.95;;;;;;;;;;5009087;28;20186;-74
2024/01/04 02:41:47;;;;;;;4.15;1.58;;;;;;;;;;5027580;28;20248;-75
2024/01/04 02:44:13;;;;;;;4.07;0.88;;;;;;;;;;5010439;28;20204;-75
2024/01/04 02:46:39;;;;;;;4.35;0.93;;;;;;;;;;5025480;28;20202;-75
2024/01/04 02:49:04;;;;;;;2.47;0.93;;;;;;;;;;5009835;28;20201;-75
2024/01/04 02:51:30;;;;;;;4.07;0.90;;;;;;;;;;5024523;28;20736;-74
2024/01/04 02:53:56;;;;;;;4.20;0.80;;;;;;;;;;5009415;28;20232;-74
2024/01/04 02:56:21;;;;;;;6.22;1.08;;;;;;;;;;5024563;28;20243;-74
2024/01/04 02:58:47;;;;;;;6.38;0.90;;;;;;;;;;5024349;28;20510;-74
2024/01/04 03:01:23;;;;;;;3.55;0.73;;;;;;;;;;5025698;28;20197;-74
2024/01/04 03:03:53;;;;;;;4.47;1.00;;;;;;;;;;5009635;28;20213;-77
2024/01/04 03:06:25;;;;;;;6.07;0.87;;;;;;;;;;4994105;28;20182;-76
2024/01/04 03:08:51;;;;;;;4.95;0.88;;;;;;;;;;5009051;28;20567;-76
2024/01/04 03:11:17;;;;;;;3.55;0.80;;;;;;;;;;5025890;28;20186;-76
2024/01/04 03:13:42;;;;;;;5.72;0.80;;;;;;;;;;4993312;28;20202;-76
2024/01/04 03:16:08;;;;;;;4.15;0.90;;;;;;;;;;5027685;28;20732;-76
2024/01/04 03:18:34;;;;;;;4.38;0.93;;;;;;;;;;5009875;28;20697;-75
2024/01/04 03:21:01;;;;;;;3.28;0.63;;;;;;;;;;4997913;28;20276;-76
2024/01/04 03:23:26;;;;;;;7.53;0.93;;;;;;;;;;5008333;28;20241;-76
2024/01/04 03:25:53;;;;;;;4.82;0.90;;;;;;;;;;5007280;28;20677;-75
2024/01/04 03:28:19;;;;;;;5.88;0.82;;;;;;;;;;5008079;28;20249;-76
2024/01/04 03:30:44;;;;;;;2.92;0.57;;;;;;;;;;5007104;28;20195;-75
2024/01/04 03:33:09;;;;;;;5.75;1.33;;;;;;;;;;5012577;28;20586;-76
2024/01/04 03:35:35;;;;;;;5.88;0.80;;;;;;;;;;5011584;28;20677;-76
2024/01/04 03:38:00;;;;;;;9.10;0.90;;;;;;;;;;5011485;28;20222;-76
2024/01/04 03:40:25;;;;;;;7.68;1.20;;;;;;;;;;5011650;28;20548;-76
2024/01/04 03:42:51;;;;;;;3.63;1.10;;;;;;;;;;5011043;28;20644;-75
2024/01/04 03:45:16;;;;;;;3.97;0.60;;;;;;;;;;5010712;28;20296;-76
2024/01/04 03:47:42;;;;;;;3.95;0.80;;;;;;;;;;5011277;28;20206;-75
2024/01/04 03:50:07;;;;;;;7.22;1.08;;;;;;;;;;5011934;28;20225;-75
2024/01/04 03:52:33;;;;;;;6.63;0.60;;;;;;;;;;5022807;28;20226;-76
2024/01/04 03:54:58;;;;;;;7.70;0.65;;;;;;;;;;4993751;28;20199;-75
2024/01/04 03:57:23;;;;;;;4.47;0.63;;;;;;;;;;5011289;28;20218;-76
2024/01/04 03:59:49;;;;;;;2.35;0.52;;;;;;;;;;5007669;28;20198;-75
2024/01/04 04:02:14;;;;;;;2.80;0.55;;;;;;;;;;5014549;28;20232;-75
2024/01/04 04:04:39;;;;;;;7.25;0.63;;;;;;;;;;4999594;28;20232;-75
2024/01/04 04:07:05;;;;;;;5.30;0.65;;;;;;;;;;5006585;28;20280;-75
2024/01/04 04:09:30;;;;;;;5.47;0.70;;;;;;;;;;5016173;28;20218;-76
2024/01/04 04:11:56;;;;;;;7.25;1.02;;;;;;;;;;5008823;28;20260;-75
2024/01/04 04:14:22;;;;;;;7.72;0.63;;;;;;;;;;5009277;28;20677;-76
2024/01/04 04:16:47;;;;;;;7.82;0.90;;;;;;;;;;5008054;28;20690;-76
2024/01/04 04:19:12;;;;;;;5.78;0.88;;;;;;;;;;5008304;28;20210;-75
2024/01/04 04:21:38;;;;;;;5.53;0.98;;;;;;;;;;5024605;28;20225;-75
2024/01/04 04:24:04;;;;;;;6.68;0.82;;;;;;;;;;5010862;28;20355;-76
2024/01/04 04:26:29;;;;;;;3.88;0.70;;;;;;;;;;5012749;28;20726;-76
2024/01/04 04:28:55;;;;;;;4.50;1.00;;;;;;;;;;5024664;28;20186;-75
2024/01/04 04:31:20;;;;;;;6.00;0.63;;;;;;;;;;5010970;28;20262;-75
2024/01/04 04:33:47;;;;;;;4.50;0.60;;;;;;;;;;5030516;28;20208;-75
2024/01/04 04:36:13;;;;;;;4.32;1.08;;;;;;;;;;5012469;28;20194;-76
2024/01/04 04:38:39;;;;;;;6.20;1.00;;;;;;;;;;5030988;28;20243;-75
2024/01/04 04:41:05;;;;;;;3.42;0.52;;;;;;;;;;4996348;28;20622;-76
2024/01/04 04:43:34;;;;;;;6.95;0.90;;;;;;;;;;5011346;28;20186;-76
2024/01/04 04:46:09;;;;;;;5.75;0.82;;;;;;;;;;4983651;28;20199;-75
2024/01/04 04:48:36;;;;;;;7.35;0.60;;;;;;;;;;5030030;28;20194;-76
2024/01/04 04:51:01;;;;;;;6.00;0.60;;;;;;;;;;5015647;28;20630;-75
2024/01/04 04:53:27;;;;;;;6.82;0.80;;;;;;;;;;4995085;28;20210;-75
2024/01/04 04:55:52;;;;;;;5.05;0.50;;;;;;;;;;5012647;28;20571;-75
2024/01/04 04:58:17;;;;;;;8.68;0.82;;;;;;;;;;5029174;28;20190;-75
2024/01/04 05:00:43;;;;;;;4.63;0.43;;;;;;;;;;5030074;28;20221;-75
2024/01/04 05:03:08;;;;;;;3.97;0.47;;;;;;;;;;5009594;28;20237;-75
2024/01/04 05:05:34;;;;;;;4.32;0.40;;;;;;;;;;5007772;28;20182;-75
2024/01/04 05:07:59;;;;;;;3.73;0.60;;;;;;;;;;5025132;28;20201;-75
2024/01/04 05:10:25;;;;;;;12.23;0.87;;;;;;;;;;5011838;28;20526;-75
2024/01/04 05:12:51;;;;;;;5.20;0.97;;;;;;;;;;5029040;28;20269;-75
2024/01/04 05:15:17;;;;;;;6.68;0.50;;;;;;;;;;5030884;28;20617;-75
2024/01/04 05:17:43;;;;;;;6.60;0.60;;;;;;;;;;5011577;28;20189;-75
2024/01/04 05:20:08;;;;;;;5.93;0.70;;;;;;;;;;5011613;28;20260;-75
2024/01/04 05:22:34;;;;;;;7.37;0.60;;;;;;;;;;5028135;28;20324;-75
2024/01/04 05:25:00;;;;;;;3.83;0.60;;;;;;;;;;5012212;28;20641;-75
2024/01/04 05:27:25;;;;;;;5.85;0.40;;;;;;;;;;5011253;28;20186;-74
2024/01/04 05:29:51;;;;;;;4.13;0.53;;;;;;;;;;5028443;28;20562;-75
2024/01/04 05:32:16;;;;;;;6.40;0.57;;;;;;;;;;5027976;28;20821;-75
2024/01/04 05:34:42;;;;;;;4.00;0.40;;;;;;;;;;5028587;28;20324;-75
2024/01/04 05:37:08;;;;;;;8.73;0.77;;;;;;;;;;5029508;28;20236;-76
2024/01/04 05:39:34;;;;;;;1.63;0.50;;;;;;;;;;5021213;28;20194;-75
2024/01/04 05:41:59;;;;;;;5.97;0.63;;;;;;;;;;5023032;28;20190;-75
2024/01/04 05:44:25;;;;;;;11.00;1.23;;;;;;;;;;5028299;28;20209;-75
2024/01/04 05:46:50;;;;;;;7.47;0.57;;;;;;;;;;5016272;28;20531;-75
2024/01/04 05:49:16;;;;;;;5.63;0.63;;;;;;;;;;5028605;28;20244;-75
2024/01/04 05:51:41;;;;;;;3.70;0.83;;;;;;;;;;5021333;28;20212;-76
2024/01/04 05:54:06;;;;;;;3.50;0.50;;;;;;;;;;5026109;28;20273;-74
2024/01/04 05:56:32;;;;;;;7.00;0.70;;;;;;;;;;5009692;28;20186;-75
2024/01/04 05:58:57;;;;;;;5.50;0.90;;;;;;;;;;5029063;28;20197;-75
2024/01/04 06:01:23;;;;;;;2.67;0.50;;;;;;;;;;5010038;28;20192;-74
2024/01/04 06:03:48;;;;;;;7.50;0.70;;;;;;;;;;5010804;28;20197;-75
2024/01/04 06:06:14;;;;;;;5.47;0.60;;;;;;;;;;5028866;28;20539;-75
2024/01/04 06:08:41;;;;;;;4.93;0.93;;;;;;;;;;5029526;28;20994;-75
2024/01/04 06:11:07;;;;;;;8.60;0.80;;;;;;;;;;4998561;28;20189;-75
2024/01/04 06:13:33;;;;;;;4.33;0.63;;;;;;;;;;4999533;28;20185;-75
2024/01/04 06:15:58;;;;;;;3.07;0.63;;;;;;;;;;5021485;28;20224;-74
2024/01/04 06:18:23;;;;;;;6.37;1.00;;;;;;;;;;5027959;28;20221;-75
2024/01/04 06:20:49;;;;;;;8.97;1.27;;;;;;;;;;5027305;28;20238;-75
2024/01/04 06:23:15;;;;;;;4.67;0.70;;;;;;;;;;5023909;28;20197;-75
2024/01/04 06:25:41;;;;;;;3.63;0.70;;;;;;;;;;5020732;28;20268;-75
2024/01/04 06:28:06;;;;;;;5.57;0.50;;;;;;;;;;5012482;28;20313;-75
2024/01/04 06:30:34;;;;;;;3.53;0.67;;;;;;;;;;5025775;28;20205;-74
2024/01/04 06:33:00;;;;;;;9.17;0.67;;;;;;;;;;5020834;28;20390;-74
2024/01/04 06:35:25;;;;;;;3.15;0.75;;;;;;;;;;5015419;28;20223;-75
2024/01/04 06:37:51;;;;;;;4.63;0.97;;;;;;;;;;5027215;28;20275;-75
2024/01/04 06:40:16;;;;;;;2.67;0.30;;;;;;;;;;5028736;28;20190;-74
2024/01/04 06:42:42;;;;;;;5.70;0.60;;;;;;;;;;5013037;28;20229;-74
2024/01/04 06:45:08;;;;;;;9.07;0.90;;;;;;;;;;5034545;28;20209;-74
2024/01/04 06:47:33;;;;;;;4.57;0.60;;;;;;;;;;5024175;28;20190;-74
2024/01/04 06:49:59;;;;;;;4.13;0.60;;;;;;;;;;5005520;28;20630;-74
2024/01/04 06:52:24;;;;;;;3.93;0.60;;;;;;;;;;5018801;28;20471;-74
2024/01/04 06:54:50;;;;;;;4.53;0.60;;;;;;;;;;5009143;28;20178;-74
2024/01/04 06:57:16;;;;;;;4.80;0.60;;;;;;;;;;5007308;28;20273;-74
2024/01/04 06:59:41;;;;;;;3.10;0.70;;;;;;;;;;5026830;28;20265;-74
2024/01/04 07:02:07;;;;;;;2.50;0.60;;;;;;;;;;5025357;28;20198;-74
2024/01/04 07:04:32;;;;;;;6.80;0.90;;;;;;;;;;5025174;28;20693;-74
2024/01/04 07:06:58;;;;;;;4.57;0.80;;;;;;;;;;5032457;28;20556;-74
2024/01/04 07:09:23;;;;;;;6.13;0.70;;;;;;;;;;5014538;28;20217;-74
2024/01/04 07:11:49;;;;;;;7.70;0.47;;;;;;;;;;5029114;28;20247;-74
2024/01/04 07:14:14;;;;;;;5.60;0.57;;;;;;;;;;5031605;28;20201;-74
2024/01/04 07:16:46;;;;;;;4.83;0.53;;;;;;;;;;5034973;28;20206;-74
2024/01/04 07:19:12;;;;;;;4.23;0.60;;;;;;;;;;5030772;28;20618;-74
2024/01/04 07:21:39;;;;;;;1.50;0.50;;;;;;;;;;5009342;28;20221;-74
2024/01/04 07:24:05;;;;;;;5.03;0.80;;;;;;;;;;5008871;28;20242;-74
2024/01/04 07:26:30;;;;;;;3.45;0.80;;;;;;;;;;5009980;28;20612;-74
2024/01/04 07:28:56;;;;;;;5.80;0.83;;;;;;;;;;5010585;28;20607;-74
2024/01/04 07:31:21;;;;;;;5.05;0.60;;;;;;;;;;5019851;28;20209;-74
2024/01/04 07:33:47;;;;;;;4.73;1.07;;;;;;;;;;5023891;28;20186;-74
2024/01/04 07:36:12;;;;;;;3.72;0.73;;;;;;;;;;5005077;28;20197;-74
2024/01/04 07:38:38;;;;;;;5.00;1.03;;;;;;;;;;5012835;28;20190;-74
2024/01/04 07:41:04;;;;;;;8.50;2.03;;;;;;;;;;5028075;28;20602;-74
2024/01/04 07:43:29;;;;;;;4.83;0.90;;;;;;;;;;5012145;28;20190;-74
2024/01/04 07:45:55;;;;;;;5.47;0.70;;;;;;;;;;5009168;28;20415;-74
2024/01/04 07:48:21;;;;;;;6.07;1.00;;;;;;;;;;5028682;28;20197;-74
2024/01/04 07:50:46;;;;;;;7.07;1.33;;;;;;;;;;5025948;28;20505;-74
2024/01/04 07:53:12;;;;;;;5.10;1.73;;;;;;;;;;5030667;28;20684;-74
2024/01/04 07:55:38;;;;;;;3.88;1.20;;;;;;;;;;5010519;28;20196;-74
2024/01/04 07:58:03;;;;;;;8.27;1.70;;;;;;;;;;5014188;28;20199;-74
2024/01/04 08:00:29;;;;;;;4.28;0.80;;;;;;;;;;5010627;28;20649;-74
2024/01/04 08:02:54;;;;;;;5.47;0.93;;;;;;;;;;5011971;28;20193;-74
2024/01/04 08:05:20;;;;;;;3.83;0.77;;;;;;;;;;5037060;28;20285;-74
2024/01/04 08:07:46;;;;;;;2.53;0.70;;;;;;;;;;5011289;28;20214;-74
2024/01/04 08:10:11;;;;;;;5.15;0.60;;;;;;;;;;5014510;28;20217;-74
2024/01/04 08:12:40;;;;;;;3.35;0.90;;;;;;;;;;5027704;28;20225;-74
2024/01/04 08:15:10;;;;;;;5.63;0.90;;;;;;;;;;5031417;28;20198;-74
2024/01/04 08:17:35;;;;;;;3.03;0.50;;;;;;;;;;5018020;28;20190;-74
2024/01/04 08:20:02;;;;;;;6.97;0.90;;;;;;;;;;5030135;28;20194;-74
2024/01/04 08:22:27;;;;;;;7.13;0.85;;;;;;;;;;5029290;28;20269;-74
2024/01/04 08:24:53;;;;;;;5.38;0.80;;;;;;;;;;5031123;28;20266;-75
2024/01/04 08:27:19;;;;;;;2.80;0.70;;;;;;;;;;5028232;28;20201;-74
2024/01/04 08:29:48;;;;;;;3.78;0.57;;;;;;;;;;5029607;28;20459;-74
2024/01/04 08:32:17;;;;;;;5.25;0.80;;;;;;;;;;5026657;28;20213;-74
2024/01/04 08:34:43;;;;;;;5.90;1.00;;;;;;;;;;5029583;28;20247;-74
2024/01/04 08:37:09;;;;;;;4.75;0.93;;;;;;;;;;5028796;28;20194;-74
2024/01/04 08:39:35;;;;;;;4.03;0.65;;;;;;;;;;5012509;28;20194;-74
2024/01/04 08:42:00;;;;;;;10.00;1.05;;;;;;;;;;5020737;28;20699;-74
2024/01/04 08:44:26;;;;;;;4.28;0.75;;;;;;;;;;5010614;28;20220;-74
2024/01/04 08:46:52;;;;;;;4.75;0.80;;;;;;;;;;5012565;28;20680;-74
2024/01/04 08:49:18;;;;;;;5.95;0.90;;;;;;;;;;5028759;28;20237;-74
2024/01/04 08:51:43;;;;;;;4.63;1.15;;;;;;;;;;5016599;28;20546;-75
2024/01/04 08:54:09;;;;;;;3.33;1.10;;;;;;;;;;5030513;28;20307;-75
2024/01/04 08:56:36;;;;;;;3.55;0.90;;;;;;;;;;5028867;28;20194;-74
2024/01/04 08:59:02;;;;;;;6.90;1.33;;;;;;;;;;5024287;28;20653;-74
2024/01/04 09:01:30;;;;;;;7.00;1.00;;;;;;;;;;5021239;28;20194;-74
2024/01/04 09:03:57;;;;;;;6.30;0.90;;;;;;;;;;5024562;28;20186;-74
2024/01/04 09:06:22;;;;;;;4.20;1.00;;;;;;;;;;5026346;28;20201;-74
2024/01/04 09:08:48;;;;;;;3.50;1.10;;;;;;;;;;5028110;28;20186;-74
2024/01/04 09:11:16;;;;;;;3.13;1.20;;;;;;;;;;5032555;28;20190;-74
2024/01/04 09:13:44;;;;;;;4.50;1.30;;;;;;;;;;5027519;28;20201;-75
2024/01/04 09:16:10;;;;;;;4.43;1.50;;;;;;;;;;5026993;28;20268;-74
2024/01/04 09:18:35;;;;;;;6.33;1.50;;;;;;;;;;5023538;28;20217;-74
2024/01/04 09:21:01;;;;;;;5.17;0.90;;;;;;;;;;5006927;28;20241;-74
2024/01/04 09:23:26;;;;;;;4.50;0.90;;;;;;;;;;5005563;28;20198;-74
2024/01/04 09:25:52;;;;;;;3.78;1.52;;;;;;;;;;5008379;28;20249;-74
2024/01/04 09:28:18;;;;;;;7.73;1.23;;;;;;;;;;5008797;28;20191;-74
2024/01/04 09:30:44;;;;;;;7.50;1.00;;;;;;;;;;5007906;28;20210;-73
2024/01/04 09:33:11;;;;;;;5.13;1.13;;;;;;;;;;4990467;28;20672;-74
2024/01/04 09:35:37;;;;;;;5.67;0.77;;;;;;;;;;5010537;28;20229;-74
2024/01/04 09:38:02;;;;;;;10.13;1.20;;;;;;;;;;5008627;28;20218;-74
2024/01/04 09:40:28;;;;;;;5.50;1.48;;;;;;;;;;5015575;28;20199;-74
2024/01/04 09:42:55;;;;;;;5.95;0.98;;;;;;;;;;5002336;28;20632;-74
2024/01/04 09:45:22;;;;;;;5.82;1.30;;;;;;;;;;5008741;28;20191;-74
2024/01/04 09:47:50;;;;;;;3.80;0.80;;;;;;;;;;5008705;28;20241;-74
2024/01/04 09:50:16;;;;;;;2.50;0.40;;;;;;;;;;5008899;28;20190;-74
2024/01/04 09:52:44;;;;;;;3.60;0.80;;;;;;;;;;5008119;28;20550;-74
2024/01/04 09:55:11;;;;;;;4.43;0.60;;;;;;;;;;5002598;28;20244;-74
2024/01/04 09:57:37;;;;;;;6.07;0.70;;;;;;;;;;5001545;28;20191;-74
2024/01/04 10:00:04;;;;;;;3.30;0.52;;;;;;;;;;4999838;28;20618;-74
2024/01/04 10:02:31;;;;;;;8.53;0.80;;;;;;;;;;5008420;28;20183;-74
2024/01/04 10:04:58;;;;;;;4.55;0.68;;;;;;;;;;4989924;28;20348;-74
2024/01/04 10:07:25;;;;;;;3.15;0.70;;;;;;;;;;4980881;28;20203;-73
2024/01/04 10:10:00;;;;;;;5.10;0.80;;;;;;;;;;5003471;28;20277;-75
2024/01/04 10:12:32;;;;;;;2.60;0.70;;;;;;;;;;5004312;28;20211;-75
2024/01/04 10:14:58;;;;;;;4.68;0.80;;;;;;;;;;5002946;28;20200;-74
2024/01/04 10:17:23;;;;;;;4.43;0.82;;;;;;;;;;5000461;28;20187;-75
2024/01/04 10:19:49;;;;;;;1.83;0.50;;;;;;;;;;5002529;28;20699;-75
2024/01/04 10:22:15;;;;;;;2.57;0.63;;;;;;;;;;5026805;28;20590;-75
2024/01/04 10:24:41;;;;;;;8.70;0.80;;;;;;;;;;5025513;28;20648;-75
2024/01/04 10:27:08;;;;;;;4.40;0.73;;;;;;;;;;5005180;28;20205;-74
2024/01/04 10:29:35;;;;;;;3.67;0.93;;;;;;;;;;5008130;28;20190;-74
2024/01/04 10:32:10;;;;;;;4.67;0.80;;;;;;;;;;5022273;28;20218;-74
2024/01/04 10:34:37;;;;;;;4.43;0.70;;;;;;;;;;5025127;28;20328;-74
2024/01/04 10:37:11;;;;;;;4.32;0.80;;;;;;;;;;5008707;28;20653;-74
2024/01/04 10:39:37;;;;;;;4.78;0.90;;;;;;;;;;5007685;28;20185;-74
2024/01/04 10:42:05;;;;;;;3.17;0.73;;;;;;;;;;5008769;28;20213;-74
2024/01/04 10:44:33;;;;;;;4.95;1.30;;;;;;;;;;5026215;28;20186;-74
2024/01/04 10:47:03;;;;;;;3.47;0.73;;;;;;;;;;5026076;28;20665;-74
2024/01/04 10:49:29;;;;;;;6.07;0.93;;;;;;;;;;5026213;28;20232;-74
2024/01/04 10:51:57;;;;;;;4.55;0.90;;;;;;;;;;5026437;28;20593;-74
2024/01/04 10:54:33;;;;;;;4.53;0.73;;;;;;;;;;5007145;28;20213;-74
2024/01/04 10:56:59;;;;;;;4.38;0.98;;;;;;;;;;5023896;28;20189;-74
2024/01/04 10:59:28;;;;;;;2.38;0.73;;;;;;;;;;5025609;28;20237;-74
2024/01/04 11:01:54;;;;;;;2.70;0.80;;;;;;;;;;5025120;28;20186;-74
2024/01/04 11:04:21;;;;;;;7.97;1.00;;;;;;;;;;5024326;28;20237;-74
2024/01/04 11:06:48;;;;;;;4.43;0.70;;;;;;;;;;4991451;28;20654;-74
2024/01/04 11:09:13;;;;;;;5.00;0.98;;;;;;;;;;5009286;28;20534;-74
2024/01/04 11:11:40;;;;;;;9.02;1.25;;;;;;;;;;5006725;28;20221;-75
2024/01/04 11:14:06;;;;;;;5.10;1.17;;;;;;;;;;5025093;28;20190;-74
2024/01/04 11:16:57;;;;;;;4.95;1.10;;;;;;;;;;5022567;28;20237;-75
2024/01/04 11:19:37;;;;;;;5.97;1.02;;;;;;;;;;5020123;28;20209;-74
2024/01/04 11:22:21;;;;;;;3.83;0.98;;;;;;;;;;5026214;28;20380;-74
2024/01/04 11:24:58;;;;;;;7.22;0.95;;;;;;;;;;5021960;28;20190;-74
2024/01/04 11:27:27;;;;;;;2.88;0.80;;;;;;;;;;5021123;28;20249;-74
2024/01/04 11:29:53;;;;;;;3.92;1.00;;;;;;;;;;5019837;28;20202;-74
2024/01/04 11:32:19;;;;;;;4.75;1.10;;;;;;;;;;5008221;28;20300;-74
2024/01/04 11:34:44;;;;;;;3.15;1.08;;;;;;;;;;5019880;28;20277;-74
2024/01/04 11:37:11;;;;;;;5.00;0.98;;;;;;;;;;5006406;28;20192;-74
2024/01/04 11:39:52;;;;;;;4.65;0.98;;;;;;;;;;4993643;28;20752;-74
2024/01/04 11:42:19;;;;;;;5.55;1.20;;;;;;;;;;5016145;28;20193;-74
2024/01/04 11:44:49;;;;;;;8.13;1.00;;;;;;;;;;5027844;28;20256;-74
2024/01/04 11:47:14;;;;;;;4.43;1.35;;;;;;;;;;5006716;28;20190;-74
2024/01/04 11:49:47;;;;;;;3.78;0.93;;;;;;;;;;5023776;28;20205;-73
2024/01/04 11:52:15;;;;;;;4.13;0.95;;;;;;;;;;5030338;28;20202;-74
2024/01/04 11:54:41;;;;;;;10.75;1.98;;;;;;;;;;5029983;28;20217;-74
2024/01/04 11:57:17;;;;;;;6.95;1.00;;;;;;;;;;5031227;28;20237;-74
2024/01/04 11:59:42;;;;;;;8.30;1.17;;;;;;;;;;5030699;28;20217;-74
2024/01/04 12:02:16;;;;;;;33.20;4.45;;;;;;;;;;4999746;28;20224;-74
2024/01/04 12:04:42;;;;;;;9.75;2.28;;;;;;;;;;5017190;28;20558;-74
2024/01/04 12:07:10;;;;;;;5.75;1.23;;;;;;;;;;5027179;28;20210;-74
2024/01/04 12:09:37;;;;;;;6.60;1.20;;;;;;;;;;5022257;28;20194;-74
2024/01/04 12:12:04;;;;;;;6.25;0.90;;;;;;;;;;5027861;28;20244;-74
2024/01/04 12:14:29;;;;;;;6.35;1.63;;;;;;;;;;4996663;28;20186;-74
2024/01/04 12:16:57;;;;;;;4.93;1.23;;;;;;;;;;5010099;28;20190;-74
2024/01/04 12:19:22;;;;;;;7.80;1.13;;;;;;;;;;5019901;28;20292;-74
2024/01/04 12:21:48;;;;;;;6.85;1.02;;;;;;;;;;5011514;28;20304;-74
2024/01/04 12:24:14;;;;;;;7.35;1.23;;;;;;;;;;5028257;28;20217;-74
2024/01/04 12:26:39;;;;;;;7.32;1.08;;;;;;;;;;5022230;28;20568;-74
2024/01/04 12:29:07;;;;;;;2.38;0.68;;;;;;;;;;5007137;28;20194;-74
2024/01/04 12:31:34;;;;;;;4.47;1.02;;;;;;;;;;5012504;28;20187;-73
2024/01/04 12:34:00;;;;;;;5.90;0.90;;;;;;;;;;5007345;28;20682;-73
2024/01/04 12:36:26;;;;;;;2.85;0.73;;;;;;;;;;5017305;28;20225;-73
2024/01/04 12:38:52;;;;;;;4.35;1.33;;;;;;;;;;5020451;28;20197;-74
2024/01/04 12:41:22;;;;;;;7.00;1.30;;;;;;;;;;5024139;28;20213;-74
2024/01/04 12:43:50;;;;;;;6.13;1.20;;;;;;;;;;5011752;28;20186;-74
2024/01/04 12:46:18;;;;;;;5.55;1.10;;;;;;;;;;5040476;28;20228;-74
2024/01/04 12:48:44;;;;;;;5.72;1.10;;;;;;;;;;5023364;28;20191;-74
2024/01/04 12:51:16;;;;;;;4.45;1.30;;;;;;;;;;5018279;28;21115;-74
2024/01/04 12:53:44;;;;;;;2.85;1.20;;;;;;;;;;5028726;28;20240;-74
2024/01/04 12:56:14;;;;;;;3.92;1.30;;;;;;;;;;5012132;28;20701;-74
2024/01/04 12:58:39;;;;;;;7.10;1.50;;;;;;;;;;5030653;28;20216;-74
2024/01/04 13:01:05;;;;;;;5.03;1.42;;;;;;;;;;5019601;28;20249;-74
2024/01/04 13:03:30;;;;;;;4.00;1.40;;;;;;;;;;5015580;28;20187;-74
2024/01/04 13:05:56;;;;;;;3.42;1.52;;;;;;;;;;5038382;28;20581;-74
2024/01/04 13:08:21;;;;;;;2.97;1.27;;;;;;;;;;5029674;28;20190;-73
2024/01/04 13:10:47;;;;;;;5.95;1.70;;;;;;;;;;5029628;28;20217;-74
2024/01/04 13:13:13;;;;;;;7.38;1.83;;;;;;;;;;5007075;28;20601;-74
2024/01/04 13:15:39;;;;;;;3.25;1.10;;;;;;;;;;5018178;28;20188;-74
2024/01/04 13:18:05;;;;;;;7.00;1.20;;;;;;;;;;5024569;28;20289;-74
2024/01/04 13:20:30;;;;;;;4.97;1.38;;;;;;;;;;5027536;28;20237;-74
2024/01/04 13:22:55;;;;;;;4.00;1.20;;;;;;;;;;5028327;28;20592;-73
2024/01/04 13:25:21;;;;;;;5.57;1.48;;;;;;;;;;5004627;28;20672;-74
2024/01/04 13:27:46;;;;;;;5.20;1.30;;;;;;;;;;5030104;28;20212;-74
2024/01/04 13:30:12;;;;;;;4.80;1.48;;;;;;;;;;5030269;28;20185;-74
2024/01/04 13:32:40;;;;;;;6.07;1.52;;;;;;;;;;5030812;28;20708;-73
2024/01/04 13:35:06;;;;;;;10.20;1.33;;;;;;;;;;5013957;28;20781;-74
2024/01/04 13:37:31;;;;;;;7.45;1.60;;;;;;;;;;5029232;28;20217;-73
2024/01/04 13:39:57;;;;;;;3.70;1.33;;;;;;;;;;5033252;28;20252;-74
2024/01/04 13:42:22;;;;;;;7.35;1.88;;;;;;;;;;5013113;28;20179;-74
2024/01/04 13:44:47;;;;;;;4.88;1.17;;;;;;;;;;5008649;28;20497;-74
2024/01/04 13:47:13;;;;;;;7.82;1.13;;;;;;;;;;5020216;28;20649;-74
2024/01/04 13:49:39;;;;;;;5.50;1.50;;;;;;;;;;5024561;28;20225;-73
2024/01/04 13:52:06;;;;;;;3.15;1.23;;;;;;;;;;5000987;28;20865;-73
2024/01/04 13:54:32;;;;;;;4.05;1.10;;;;;;;;;;5026860;28;20229;-73
2024/01/04 13:56:58;;;;;;;3.97;1.48;;;;;;;;;;5023407;28;20191;-74
2024/01/04 13:59:29;;;;;;;3.90;1.33;;;;;;;;;;5017934;28;20272;-74
2024/01/04 14:01:58;;;;;;;4.32;1.35;;;;;;;;;;5019730;28;20189;-75
2024/01/04 14:04:24;;;;;;;8.23;2.00;;;;;;;;;;5026019;28;20252;-74
2024/01/04 14:06:49;;;;;;;5.50;1.35;;;;;;;;;;5025539;28;20198;-74
2024/01/04 14:09:17;;;;;;;5.03;1.85;;;;;;;;;;5016151;28;20182;-75
2024/01/04 14:11:44;;;;;;;7.05;1.70;;;;;;;;;;5027674;28;20189;-75
2024/01/04 14:14:12;;;;;;;4.00;1.42;;;;;;;;;;5027366;28;20507;-74
2024/01/04 14:16:38;;;;;;;3.30;1.55;;;;;;;;;;5008268;28;20193;-74
2024/01/04 14:19:04;;;;;;;7.88;1.90;;;;;;;;;;5026738;28;20705;-75
2024/01/04 14:21:29;;;;;;;6.85;2.00;;;;;;;;;;5029718;28;20238;-75
2024/01/04 14:23:55;;;;;;;3.90;1.52;;;;;;;;;;5026014;28;20651;-74
2024/01/04 14:26:21;;;;;;;7.00;2.08;;;;;;;;;;5025267;28;20194;-74
2024/01/04 14:28:46;;;;;;;4.63;2.00;;;;;;;;;;5008591;28;20194;-74
2024/01/04 14:31:12;;;;;;;7.38;2.30;;;;;;;;;;5003325;28;20186;-74
2024/01/04 14:33:37;;;;;;;3.25;1.70;;;;;;;;;;4999797;28;20214;-74
2024/01/04 14:36:05;;;;;;;11.75;2.33;;;;;;;;;;5004770;28;20202;-74